Time;durP1;ratioP1;P1;durP2;ratioP2;P2;SDS_P1;SDS_P2;PMS_P1;PMS_P2;Temp;Humidity;BMP_temperature;BMP_pressure;BME280_temperature;BME280_humidity;BME280_pressure;Samples;Min_cycle;Max_cycle;Signal;HPM_P1;HPM_P2
2022/10/02 00:01:43;;;;;;;19.77;4.22;;;14.80;93.70;;;;;;5070145;28;20471;-75
2022/10/02 00:04:15;;;;;;;17.23;3.75;;;14.80;93.50;;;;;;5071129;28;20432;-75
2022/10/02 00:06:47;;;;;;;13.43;3.30;;;14.80;93.60;;;;;;5071671;28;20021;-74
2022/10/02 00:09:29;;;;;;;13.07;2.85;;;14.70;93.40;;;;;;5070937;28;20283;-76
2022/10/02 00:11:57;;;;;;;13.32;3.22;;;14.70;92.90;;;;;;5071283;28;20036;-75
2022/10/02 00:14:26;;;;;;;18.65;3.58;;;14.80;92.50;;;;;;5070081;28;20036;-75
2022/10/02 00:16:59;;;;;;;9.95;2.35;;;14.70;92.50;;;;;;5071136;28;20453;-75
2022/10/02 00:19:25;;;;;;;8.90;1.73;;;14.70;92.20;;;;;;5070423;28;20028;-75
2022/10/02 00:22:03;;;;;;;14.20;2.58;;;14.80;91.90;;;;;;5070628;28;20531;-75
2022/10/02 00:24:47;;;;;;;11.98;2.25;;;14.70;92.00;;;;;;5070692;28;20028;-75
2022/10/02 00:27:25;;;;;;;7.60;1.42;;;14.70;91.80;;;;;;5070843;28;20103;-74
2022/10/02 00:29:55;;;;;;;12.63;1.92;;;14.70;91.50;;;;;;5071052;28;20147;-74
2022/10/02 00:32:51;;;;;;;7.20;1.48;;;14.80;91.60;;;;;;5069658;28;20017;-75
2022/10/02 00:35:46;;;;;;;12.27;2.20;;;14.70;91.70;;;;;;5069587;28;20071;-74
2022/10/02 00:38:33;;;;;;;8.07;1.90;;;14.70;91.50;;;;;;5049893;28;20074;-74
2022/10/02 00:41:17;;;;;;;7.10;2.28;;;14.60;91.60;;;;;;5068433;28;20052;-75
2022/10/02 00:43:46;;;;;;;9.80;2.10;;;14.60;91.70;;;;;;5069648;28;20475;-74
2022/10/02 00:46:33;;;;;;;7.15;1.95;;;14.60;91.80;;;;;;5068996;28;20525;-76
2022/10/02 00:49:22;;;;;;;13.75;2.08;;;14.60;91.60;;;;;;5068942;28;20040;-75
2022/10/02 00:52:20;;;;;;;6.40;1.90;;;14.60;92.00;;;;;;5068966;28;20024;-74
2022/10/02 00:55:11;;;;;;;9.55;2.42;;;14.50;91.70;;;;;;5070397;28;20020;-74
2022/10/02 00:57:43;;;;;;;9.15;2.28;;;14.50;91.50;;;;;;5070764;28;20063;-75
2022/10/02 01:00:15;;;;;;;12.52;2.58;;;14.50;91.60;;;;;;5069466;28;20491;-74
2022/10/02 01:02:43;;;;;;;11.68;2.20;;;14.40;91.60;;;;;;5070358;28;20029;-75
2022/10/02 01:05:09;;;;;;;8.65;2.00;;;14.40;91.70;;;;;;5069802;28;20028;-74
2022/10/02 01:07:39;;;;;;;8.15;2.63;;;14.30;91.70;;;;;;5069120;28;20031;-74
2022/10/02 01:10:07;;;;;;;11.35;2.28;;;14.40;91.80;;;;;;5068186;28;20478;-74
2022/10/02 01:12:33;;;;;;;11.70;2.88;;;14.40;92.10;;;;;;5069504;28;20033;-74
2022/10/02 01:14:59;;;;;;;9.15;1.83;;;14.40;91.90;;;;;;5069342;28;20387;-74
2022/10/02 01:17:28;;;;;;;8.27;1.92;;;14.40;92.00;;;;;;5069463;28;20024;-74
2022/10/02 01:19:58;;;;;;;14.13;2.83;;;14.40;92.00;;;;;;5069824;28;20016;-74
2022/10/02 01:22:44;;;;;;;6.65;2.10;;;14.40;92.00;;;;;;5064338;28;20045;-74
2022/10/02 01:25:10;;;;;;;10.13;2.53;;;14.40;92.00;;;;;;5068692;28;20078;-74
2022/10/02 01:27:36;;;;;;;12.38;3.28;;;14.40;91.90;;;;;;5069482;28;20099;-74
2022/10/02 01:30:08;;;;;;;9.55;2.80;;;14.50;91.90;;;;;;5069663;28;20104;-74
2022/10/02 01:32:51;;;;;;;13.32;3.25;;;14.50;91.90;;;;;;5068805;28;20021;-73
2022/10/02 01:35:20;;;;;;;12.48;3.42;;;14.50;91.90;;;;;;5069580;28;20128;-74
2022/10/02 01:37:47;;;;;;;6.68;2.30;;;14.50;91.80;;;;;;5069721;28;20036;-75
2022/10/02 01:40:45;;;;;;;10.05;2.45;;;14.50;91.80;;;;;;5064562;28;20104;-74
2022/10/02 01:43:39;;;;;;;13.13;2.80;;;14.50;91.80;;;;;;5078401;28;20048;-74
2022/10/02 01:46:33;;;;;;;11.90;2.78;;;14.50;91.70;;;;;;5068862;28;20506;-73
2022/10/02 01:49:31;;;;;;;21.27;5.78;;;14.60;91.90;;;;;;5059363;28;20549;-74
2022/10/02 01:52:34;;;;;;;25.23;7.40;;;14.60;92.40;;;;;;5067306;28;20119;-75
2022/10/02 01:55:15;;;;;;;17.38;6.05;;;14.60;92.90;;;;;;5068855;28;20031;-74
2022/10/02 01:58:15;;;;;;;16.35;5.82;;;14.50;93.00;;;;;;5068924;28;20032;-73
2022/10/02 02:01:26;;;;;;;25.77;10.40;;;14.40;93.00;;;;;;5050191;28;20021;-74
2022/10/02 02:04:02;;;;;;;35.95;15.23;;;14.40;93.80;;;;;;5066911;28;20024;-74
2022/10/02 02:06:40;;;;;;;21.85;10.88;;;14.40;94.10;;;;;;5062016;28;20036;-75
2022/10/02 02:09:16;;;;;;;30.33;15.07;;;14.40;94.10;;;;;;5065348;28;20127;-74
2022/10/02 02:11:52;;;;;;;32.97;13.57;;;14.40;94.50;;;;;;5068991;28;20028;-74
2022/10/02 02:14:31;;;;;;;35.08;17.75;;;14.40;94.60;;;;;;5065448;28;20025;-74
2022/10/02 02:17:25;;;;;;;22.05;12.35;;;14.40;94.50;;;;;;5065129;28;20682;-74
2022/10/02 02:20:01;;;;;;;25.20;11.45;;;14.40;94.40;;;;;;5068943;28;20020;-74
2022/10/02 02:22:35;;;;;;;22.33;11.18;;;14.50;94.30;;;;;;5068026;28;20832;-74
2022/10/02 02:25:25;;;;;;;29.00;15.02;;;14.50;94.30;;;;;;5067780;28;20069;-74
2022/10/02 02:27:55;;;;;;;24.42;12.02;;;14.50;94.40;;;;;;5068904;28;20025;-74
2022/10/02 02:30:22;;;;;;;37.15;16.05;;;14.60;93.90;;;;;;5068800;28;20024;-73
2022/10/02 02:33:00;;;;;;;26.92;12.63;;;14.60;94.20;;;;;;5068624;28;20027;-73
2022/10/02 02:35:49;;;;;;;31.25;13.70;;;14.60;94.30;;;;;;5066631;28;20074;-73
2022/10/02 02:38:30;;;;;;;27.25;14.13;;;14.70;94.70;;;;;;5068442;28;20063;-73
2022/10/02 02:41:07;;;;;;;32.05;12.50;;;14.70;94.30;;;;;;5055544;28;20029;-74
2022/10/02 02:43:47;;;;;;;35.80;15.35;;;14.70;94.20;;;;;;5055838;28;20083;-74
2022/10/02 02:46:24;;;;;;;22.00;11.90;;;14.70;94.20;;;;;;5069055;28;20450;-73
2022/10/02 02:48:57;;;;;;;30.23;13.45;;;14.70;94.20;;;;;;5068667;28;20867;-73
2022/10/02 02:51:34;;;;;;;20.52;11.63;;;14.70;94.30;;;;;;5068957;28;20031;-74
2022/10/02 02:54:11;;;;;;;30.15;13.60;;;14.70;94.30;;;;;;5068495;28;20020;-74
2022/10/02 02:56:37;;;;;;;30.83;13.95;;;14.70;94.40;;;;;;5068527;28;20031;-74
2022/10/02 02:59:10;;;;;;;32.95;13.68;;;14.70;94.40;;;;;;5068483;28;20036;-74
2022/10/02 03:01:36;;;;;;;33.65;13.68;;;14.70;94.70;;;;;;5067820;28;20027;-73
2022/10/02 03:04:02;;;;;;;38.10;15.10;;;14.70;94.40;;;;;;5070361;28;20020;-73
2022/10/02 03:06:41;;;;;;;40.03;15.82;;;14.70;94.30;;;;;;5071720;28;20027;-73
2022/10/02 03:09:15;;;;;;;32.20;13.97;;;14.60;94.30;;;;;;5071931;28;20132;-74
2022/10/02 03:12:02;;;;;;;26.55;10.75;;;14.60;94.30;;;;;;5070732;28;20021;-74
2022/10/02 03:14:38;;;;;;;30.83;12.40;;;14.60;94.30;;;;;;5071547;28;20016;-74
2022/10/02 03:17:06;;;;;;;31.95;12.23;;;14.60;94.20;;;;;;5070935;28;20452;-74
2022/10/02 03:20:09;;;;;;;28.30;12.15;;;14.60;94.30;;;;;;5070831;28;20134;-74
2022/10/02 03:22:44;;;;;;;28.48;11.80;;;14.60;94.30;;;;;;5065675;28;20076;-74
2022/10/02 03:25:33;;;;;;;25.95;10.35;;;14.60;94.20;;;;;;5071809;28;20029;-74
2022/10/02 03:28:31;;;;;;;28.17;11.68;;;14.60;94.10;;;;;;5071302;28;20040;-74
2022/10/02 03:30:58;;;;;;;23.40;10.68;;;14.60;94.10;;;;;;5071708;28;20057;-74
2022/10/02 03:33:26;;;;;;;26.55;10.98;;;14.60;94.00;;;;;;5072083;28;20021;-74
2022/10/02 03:35:52;;;;;;;28.52;11.95;;;14.60;94.00;;;;;;5070155;28;20158;-74
2022/10/02 03:38:20;;;;;;;28.75;11.30;;;14.60;94.00;;;;;;5071599;28;20048;-74
2022/10/02 03:40:46;;;;;;;31.08;9.00;;;14.60;94.00;;;;;;5070234;28;20017;-74
2022/10/02 03:43:21;;;;;;;25.27;9.68;;;14.50;94.10;;;;;;5071576;28;20078;-74
2022/10/02 03:45:47;;;;;;;28.65;8.80;;;14.50;94.20;;;;;;5071512;28;20016;-74
2022/10/02 03:48:13;;;;;;;22.65;7.88;;;14.50;94.40;;;;;;5071544;28;20024;-74
2022/10/02 03:50:39;;;;;;;28.27;9.57;;;14.40;94.50;;;;;;5071487;28;20099;-74
2022/10/02 03:53:16;;;;;;;24.13;7.75;;;14.40;94.70;;;;;;5071542;28;20103;-74
2022/10/02 03:55:47;;;;;;;32.03;9.77;;;14.40;94.70;;;;;;5071074;28;20017;-74
2022/10/02 03:58:14;;;;;;;;;;;14.50;94.80;;;;;;5063817;28;20123;-74
2022/10/02 04:01:03;;;;;;;26.80;8.85;;;14.50;94.80;;;;;;5070568;28;19913;-74
2022/10/02 04:03:36;;;;;;;27.70;7.75;;;14.40;94.80;;;;;;5060959;28;20487;-74
2022/10/02 04:06:10;;;;;;;22.70;6.50;;;14.40;94.90;;;;;;5071725;28;20019;-74
2022/10/02 04:08:37;;;;;;;28.88;7.28;;;14.40;94.90;;;;;;5051135;28;20028;-74
2022/10/02 04:11:09;;;;;;;32.83;7.35;;;14.40;94.90;;;;;;5056267;28;20724;-74
2022/10/02 04:13:47;;;;;;;26.25;8.30;;;14.40;95.00;;;;;;5072819;28;20425;-74
2022/10/02 04:16:19;;;;;;;27.77;6.97;;;14.40;95.00;;;;;;5073249;28;20024;-74
2022/10/02 04:18:56;;;;;;;20.35;5.68;;;14.40;95.00;;;;;;5071882;28;20082;-74
2022/10/02 04:21:29;;;;;;;26.55;6.55;;;14.40;95.00;;;;;;5071034;28;20043;-75
2022/10/02 04:24:03;;;;;;;28.65;8.00;;;14.40;95.10;;;;;;5071092;28;20028;-75
2022/10/02 04:26:33;;;;;;;26.38;7.55;;;14.40;95.10;;;;;;5069915;28;20569;-75
2022/10/02 04:29:15;;;;;;;30.67;7.60;;;14.40;95.10;;;;;;5070850;28;20100;-75
2022/10/02 04:31:40;;;;;;;26.08;7.70;;;14.40;95.20;;;;;;5070494;28;20016;-74
2022/10/02 04:34:12;;;;;;;25.48;6.78;;;14.40;95.20;;;;;;5060836;28;20692;-75
2022/10/02 04:37:00;;;;;;;25.00;6.70;;;14.40;95.20;;;;;;5071238;28;20532;-74
2022/10/02 04:39:50;;;;;;;17.55;6.05;;;14.40;95.10;;;;;;5069628;28;20025;-74
2022/10/02 04:42:43;;;;;;;28.83;8.07;;;14.40;94.90;;;;;;5070590;28;20363;-74
2022/10/02 04:45:27;;;;;;;26.25;6.35;;;14.40;95.00;;;;;;5060153;28;20032;-74
2022/10/02 04:48:18;;;;;;;25.65;6.13;;;14.40;95.00;;;;;;5059848;28;20024;-74
2022/10/02 04:50:52;;;;;;;25.33;6.30;;;14.40;95.00;;;;;;5070793;28;20027;-75
2022/10/02 04:53:23;;;;;;;27.58;7.22;;;14.40;95.00;;;;;;5070042;28;20024;-75
2022/10/02 04:56:02;;;;;;;33.25;9.45;;;14.40;95.10;;;;;;5067757;28;20020;-74
2022/10/02 04:58:45;;;;;;;29.05;7.15;;;14.40;95.10;;;;;;5068425;28;20119;-74
2022/10/02 05:01:39;;;;;;;31.60;8.38;;;14.40;95.10;;;;;;5068892;28;20112;-75
2022/10/02 05:04:14;;;;;;;32.33;9.35;;;14.30;95.10;;;;;;5066599;28;20031;-74
2022/10/02 05:07:12;;;;;;;30.98;10.85;;;14.30;95.20;;;;;;5069015;28;20047;-75
2022/10/02 05:09:47;;;;;;;43.45;13.90;;;14.30;95.20;;;;;;5069903;28;20029;-75
2022/10/02 05:12:30;;;;;;;34.58;9.05;;;14.30;95.30;;;;;;5049206;28;20103;-75
2022/10/02 05:15:02;;;;;;;32.45;10.68;;;14.30;95.30;;;;;;5068590;28;20483;-74
2022/10/02 05:17:41;;;;;;;53.88;19.02;;;14.40;95.20;;;;;;5068383;28;20040;-74
2022/10/02 05:20:27;;;;;;;49.20;18.83;;;14.30;95.30;;;;;;5068783;28;20139;-74
2022/10/02 05:23:10;;;;;;;56.08;18.33;;;14.40;95.30;;;;;;5062981;28;20519;-74
2022/10/02 05:26:02;;;;;;;46.95;13.45;;;14.40;95.20;;;;;;5069100;28;20024;-75
2022/10/02 05:28:54;;;;;;;39.95;12.85;;;14.40;95.20;;;;;;5068631;28;20024;-75
2022/10/02 05:31:34;;;;;;;34.28;12.02;;;14.50;95.20;;;;;;5069473;28;20438;-76
2022/10/02 05:34:25;;;;;;;42.73;14.97;;;14.50;95.20;;;;;;5069267;28;20017;-75
2022/10/02 05:36:58;;;;;;;38.47;14.45;;;14.50;95.20;;;;;;5048453;28;20037;-73
2022/10/02 05:39:32;;;;;;;43.33;13.40;;;14.50;95.20;;;;;;5055904;28;20024;-74
2022/10/02 05:42:17;;;;;;;35.67;10.05;;;14.50;95.10;;;;;;5069252;28;20028;-74
2022/10/02 05:45:24;;;;;;;26.83;10.32;;;14.40;95.20;;;;;;5069155;28;20028;-75
2022/10/02 05:47:54;;;;;;;32.13;11.30;;;14.40;95.20;;;;;;5068255;28;20481;-75
2022/10/02 05:50:26;;;;;;;41.08;11.43;;;14.40;95.20;;;;;;5068844;28;20035;-74
2022/10/02 05:53:37;;;;;;;28.67;9.50;;;14.30;95.20;;;;;;5068750;28;20016;-74
2022/10/02 05:56:20;;;;;;;34.28;12.10;;;14.30;95.30;;;;;;5068912;28;20028;-74
2022/10/02 05:59:01;;;;;;;37.92;10.80;;;14.30;95.30;;;;;;5049024;28;20044;-74
2022/10/02 06:01:33;;;;;;;31.35;10.20;;;14.30;95.40;;;;;;5067180;28;20024;-75
2022/10/02 06:03:58;;;;;;;33.15;12.18;;;14.30;95.40;;;;;;5069066;28;20028;-74
2022/10/02 06:06:33;;;;;;;20.42;6.05;;;14.30;95.50;;;;;;5068958;28;20544;-71
2022/10/02 06:09:07;;;;;;;27.27;7.82;;;14.40;95.60;;;;;;5058542;28;20523;-71
2022/10/02 06:11:41;;;;;;;23.73;8.02;;;14.60;96.30;;;;;;5055923;28;20075;-71
2022/10/02 06:14:14;;;;;;;23.02;7.18;;;14.90;96.10;;;;;;5065611;28;20603;-71
2022/10/02 06:16:44;;;;;;;19.02;5.78;;;15.10;95.90;;;;;;5058593;28;20073;-71
2022/10/02 06:19:18;;;;;;;22.27;5.20;;;15.10;95.70;;;;;;5053949;28;20090;-71
2022/10/02 06:22:00;;;;;;;19.42;5.78;;;15.20;95.70;;;;;;5062617;28;20147;-70
2022/10/02 06:24:37;;;;;;;19.23;4.47;;;15.30;95.40;;;;;;5059866;28;20024;-70
2022/10/02 06:27:11;;;;;;;16.10;4.38;;;15.30;95.00;;;;;;5060282;28;20032;-70
2022/10/02 06:29:42;;;;;;;14.63;3.72;;;15.30;94.90;;;;;;5050611;28;20496;-70
2022/10/02 06:32:37;;;;;;;15.90;4.28;;;15.30;94.90;;;;;;5064429;28;20060;-71
2022/10/02 06:35:11;;;;;;;18.15;4.55;;;15.40;95.00;;;;;;5063129;28;20045;-71
2022/10/02 06:37:55;;;;;;;16.52;4.45;;;15.50;94.70;;;;;;5070014;28;20025;-72
2022/10/02 06:40:44;;;;;;;15.35;4.20;;;15.60;94.40;;;;;;5072656;28;20032;-72
2022/10/02 06:43:29;;;;;;;15.65;3.95;;;15.60;94.30;;;;;;5070027;28;20039;-71
2022/10/02 06:46:21;;;;;;;13.38;2.83;;;15.70;94.10;;;;;;5069272;28;20057;-72
2022/10/02 06:49:00;;;;;;;15.77;4.30;;;15.80;94.00;;;;;;5064032;28;20028;-71
2022/10/02 06:51:58;;;;;;;12.50;3.40;;;15.80;93.70;;;;;;5064096;28;20025;-71
2022/10/02 06:55:17;;;;;;;16.42;4.13;;;15.80;93.60;;;;;;5063195;28;20017;-72
2022/10/02 06:57:51;;;;;;;13.20;3.53;;;16.00;93.20;;;;;;5048868;28;20096;-72
2022/10/02 07:00:21;;;;;;;13.27;4.00;;;16.00;93.00;;;;;;5062257;28;20047;-72
2022/10/02 07:02:55;;;;;;;10.60;3.07;;;16.00;93.10;;;;;;5062938;28;20020;-71
2022/10/02 07:05:40;;;;;;;15.05;3.20;;;16.00;93.20;;;;;;5062935;28;20032;-72
2022/10/02 07:08:42;;;;;;;17.98;3.83;;;16.20;92.90;;;;;;5060619;28;20082;-72
2022/10/02 07:11:24;;;;;;;15.20;3.15;;;16.20;92.60;;;;;;5060554;28;20032;-70
2022/10/02 07:14:01;;;;;;;14.05;3.00;;;16.30;92.80;;;;;;5069789;28;20023;-70
2022/10/02 07:16:50;;;;;;;18.25;4.10;;;16.40;92.70;;;;;;5053958;28;20539;-71
2022/10/02 07:19:48;;;;;;;11.05;3.90;;;16.40;92.60;;;;;;5070611;28;20040;-70
2022/10/02 07:22:41;;;;;;;16.27;4.38;;;16.40;92.40;;;;;;5053909;28;20053;-71
2022/10/02 07:25:47;;;;;;;16.35;4.45;;;16.40;92.50;;;;;;5057527;28;20717;-71
2022/10/02 07:28:21;;;;;;;13.30;3.75;;;16.30;92.50;;;;;;5059156;28;20021;-72
2022/10/02 07:30:59;;;;;;;20.85;4.68;;;16.40;92.70;;;;;;5068097;28;20029;-71
2022/10/02 07:33:33;;;;;;;15.65;3.63;;;16.50;92.70;;;;;;5070325;28;20021;-71
2022/10/02 07:36:08;;;;;;;14.50;3.08;;;16.60;92.70;;;;;;5060077;28;20395;-70
2022/10/02 07:38:46;;;;;;;14.75;3.28;;;16.60;92.80;;;;;;5060432;28;20024;-71
2022/10/02 07:41:44;;;;;;;15.30;3.28;;;16.60;92.40;;;;;;5056503;28;20150;-71
2022/10/02 07:44:36;;;;;;;14.38;3.80;;;16.50;92.40;;;;;;5063574;28;20046;-70
2022/10/02 07:47:23;;;;;;;12.80;3.15;;;16.50;92.50;;;;;;5070208;28;20028;-70
2022/10/02 07:50:12;;;;;;;16.58;3.30;;;16.50;92.50;;;;;;5069191;28;20081;-70
2022/10/02 07:53:07;;;;;;;12.50;3.45;;;16.60;92.60;;;;;;5071170;28;20592;-70
2022/10/02 07:55:40;;;;;;;10.68;2.90;;;16.60;92.40;;;;;;5066321;28;20031;-70
2022/10/02 07:58:11;;;;;;;14.45;3.67;;;16.60;92.40;;;;;;5070706;28;20029;-70
2022/10/02 08:00:46;;;;;;;14.02;3.20;;;16.70;92.50;;;;;;5070885;28;20032;-71
2022/10/02 08:03:16;;;;;;;17.63;3.55;;;16.80;92.40;;;;;;5071084;28;20368;-71
2022/10/02 08:05:52;;;;;;;13.95;3.22;;;16.90;92.30;;;;;;5070863;28;20111;-70
2022/10/02 08:08:37;;;;;;;12.70;3.05;;;16.90;92.20;;;;;;5070315;28;20032;-71
2022/10/02 08:11:17;;;;;;;17.67;4.30;;;17.00;91.90;;;;;;5059326;28;20395;-74
2022/10/02 08:13:59;;;;;;;14.35;3.55;;;17.10;91.70;;;;;;5066125;28;20794;-74
2022/10/02 08:16:31;;;;;;;11.73;3.22;;;17.10;91.80;;;;;;5058244;28;20110;-74
2022/10/02 08:19:15;;;;;;;22.35;4.85;;;17.10;91.70;;;;;;5051232;28;20028;-74
2022/10/02 08:21:55;;;;;;;13.02;3.85;;;17.20;91.90;;;;;;5068156;28;20017;-74
2022/10/02 08:24:29;;;;;;;15.57;3.92;;;17.30;92.20;;;;;;5070827;28;20063;-75
2022/10/02 08:27:00;;;;;;;11.25;3.03;;;17.50;92.00;;;;;;5070583;28;20096;-75
2022/10/02 08:29:46;;;;;;;18.23;3.80;;;17.60;91.50;;;;;;5070887;28;20048;-76
2022/10/02 08:32:13;;;;;;;17.17;3.78;;;17.70;91.40;;;;;;5071073;28;20379;-73
2022/10/02 08:34:43;;;;;;;16.00;2.70;;;17.80;91.30;;;;;;5065706;28;20104;-75
2022/10/02 08:37:17;;;;;;;19.33;3.15;;;17.90;91.20;;;;;;5063452;28;20028;-76
2022/10/02 08:39:54;;;;;;;11.15;2.70;;;17.90;91.00;;;;;;5063894;28;20029;-77
2022/10/02 08:42:44;;;;;;;12.85;2.97;;;18.00;90.70;;;;;;5066091;28;20023;-75
2022/10/02 08:45:34;;;;;;;13.27;3.20;;;17.90;90.70;;;;;;5061371;28;20028;-76
2022/10/02 08:48:05;;;;;;;16.48;3.42;;;18.00;90.40;;;;;;5058591;28;20028;-75
2022/10/02 08:50:55;;;;;;;13.35;2.83;;;18.10;91.00;;;;;;5062185;28;20021;-76
2022/10/02 08:53:32;;;;;;;;;;;18.20;90.70;;;;;;5064259;28;20094;-76
2022/10/02 08:56:12;;;;;;;12.10;2.92;;;18.20;89.70;;;;;;5062818;28;19912;-75
2022/10/02 08:59:03;;;;;;;14.68;3.13;;;18.30;90.10;;;;;;5070466;28;20076;-76
2022/10/02 09:01:55;;;;;;;18.85;2.78;;;18.40;90.50;;;;;;5068230;28;20021;-75
2022/10/02 09:04:40;;;;;;;20.00;3.80;;;18.60;90.20;;;;;;5070248;28;20024;-75
2022/10/02 09:07:43;;;;;;;16.92;2.97;;;18.70;88.30;;;;;;5072972;28;20040;-76
2022/10/02 09:10:47;;;;;;;12.63;3.13;;;18.80;87.60;;;;;;5073150;28;20030;-75
2022/10/02 09:13:44;;;;;;;14.02;2.92;;;18.90;88.10;;;;;;5072286;28;20024;-75
2022/10/02 09:16:28;;;;;;;11.38;2.38;;;19.00;88.10;;;;;;5082624;28;20386;-74
2022/10/02 09:19:01;;;;;;;20.20;3.85;;;19.00;87.10;;;;;;5058878;28;20031;-77
2022/10/02 09:21:39;;;;;;;14.75;2.70;;;19.10;85.80;;;;;;5072478;27;1222445;-74
2022/10/02 09:24:07;;;;;;;17.25;3.00;;;19.10;86.40;;;;;;5095304;28;20032;-74
2022/10/02 09:26:49;;;;;;;16.73;2.70;;;19.20;86.30;;;;;;5099692;28;20085;-74
2022/10/02 09:29:56;;;;;;;13.18;3.20;;;19.20;85.50;;;;;;5097138;28;20012;-75
2022/10/02 09:32:46;;;;;;;10.68;1.88;;;19.30;85.00;;;;;;5093381;28;20494;-75
2022/10/02 09:35:29;;;;;;;14.43;3.13;;;19.40;84.50;;;;;;5096056;28;20618;-75
2022/10/02 09:38:26;;;;;;;11.05;3.03;;;19.40;83.70;;;;;;5097605;28;20024;-75
2022/10/02 09:40:54;;;;;;;16.35;2.83;;;19.40;83.70;;;;;;5097358;28;20028;-75
2022/10/02 09:43:38;;;;;;;14.30;3.05;;;19.40;83.80;;;;;;5096134;28;20035;-75
2022/10/02 09:46:25;;;;;;;14.07;2.40;;;19.40;83.30;;;;;;5094757;28;20108;-75
2022/10/02 09:49:12;;;;;;;14.75;3.10;;;19.50;83.60;;;;;;5078899;28;20062;-74
2022/10/02 09:52:08;;;;;;;13.52;3.60;;;19.70;84.30;;;;;;5078112;28;20173;-75
2022/10/02 09:54:55;;;;;;;13.65;2.55;;;19.70;83.30;;;;;;5092240;28;20533;-75
2022/10/02 09:57:27;;;;;;;11.18;2.20;;;19.70;81.90;;;;;;5094972;28;20027;-76
2022/10/02 10:00:20;;;;;;;16.40;3.15;;;19.70;80.70;;;;;;5095772;28;20025;-75
2022/10/02 10:03:18;;;;;;;13.98;2.45;;;19.60;80.90;;;;;;5078825;28;20036;-75
2022/10/02 10:06:08;;;;;;;12.88;2.40;;;19.60;80.20;;;;;;5077415;28;20020;-75
2022/10/02 10:08:39;;;;;;;;;;;19.60;80.00;;;;;;5095681;28;20024;-75
2022/10/02 10:11:09;;;;;;;13.70;2.72;;;19.70;79.80;;;;;;5093670;28;19912;-74
2022/10/02 10:13:43;;;;;;;10.40;2.28;;;19.90;79.40;;;;;;5098446;28;20018;-75
2022/10/02 10:16:30;;;;;;;13.85;2.85;;;20.10;78.80;;;;;;5095645;28;20416;-75
2022/10/02 10:19:21;;;;;;;14.70;2.85;;;20.20;76.80;;;;;;5078732;28;20448;-74
2022/10/02 10:22:08;;;;;;;14.13;2.72;;;20.10;75.80;;;;;;5093722;28;20044;-74
2022/10/02 10:24:52;;;;;;;12.77;2.67;;;20.10;76.80;;;;;;5091732;28;20028;-75
2022/10/02 10:27:43;;;;;;;17.17;3.20;;;20.20;76.30;;;;;;5074063;28;20065;-74
2022/10/02 10:30:26;;;;;;;17.35;2.95;;;20.20;73.10;;;;;;5108121;28;20492;-74
2022/10/02 10:33:07;;;;;;;11.63;3.10;;;20.30;74.20;;;;;;5081358;28;20039;-74
2022/10/02 10:36:01;;;;;;;10.43;2.83;;;20.40;74.30;;;;;;5060796;28;20040;-74
2022/10/02 10:38:51;;;;;;;12.13;3.30;;;20.70;75.20;;;;;;5063164;28;20854;-74
2022/10/02 10:41:16;;;;;;;15.27;3.72;;;21.00;74.70;;;;;;5082136;28;20036;-73
2022/10/02 10:44:03;;;;;;;11.73;3.22;;;21.10;71.10;;;;;;5080643;28;20475;-74
2022/10/02 10:46:35;;;;;;;10.68;3.25;;;21.00;71.40;;;;;;5062528;28;20024;-74
2022/10/02 10:49:22;;;;;;;15.40;2.72;;;20.90;73.50;;;;;;5065539;28;20025;-75
2022/10/02 10:52:10;;;;;;;10.85;2.30;;;20.80;74.00;;;;;;5080901;28;20027;-75
2022/10/02 10:54:47;;;;;;;12.75;3.40;;;20.50;69.90;;;;;;5061890;28;20027;-75
2022/10/02 10:57:37;;;;;;;17.75;4.03;;;20.50;71.30;;;;;;5083482;28;20098;-75
2022/10/02 11:00:24;;;;;;;9.27;2.45;;;20.40;70.90;;;;;;5057712;28;20744;-76
2022/10/02 11:03:19;;;;;;;14.57;3.65;;;20.30;71.80;;;;;;5084496;28;20109;-75
2022/10/02 11:06:06;;;;;;;10.15;2.30;;;20.10;69.50;;;;;;5047389;28;20031;-75
2022/10/02 11:08:34;;;;;;;6.97;1.85;;;20.00;69.50;;;;;;5088437;28;20020;-75
2022/10/02 11:11:32;;;;;;;6.97;1.77;;;20.00;70.70;;;;;;5069832;28;20024;-75
2022/10/02 11:14:11;;;;;;;10.70;2.88;;;19.90;70.70;;;;;;5080950;28;20055;-75
2022/10/02 11:16:54;;;;;;;8.95;2.17;;;19.90;71.70;;;;;;5082521;28;20591;-75
2022/10/02 11:20:04;;;;;;;8.73;1.63;;;19.80;71.10;;;;;;5081131;28;20071;-75
2022/10/02 11:22:48;;;;;;;12.70;2.55;;;19.80;71.10;;;;;;5078418;28;20052;-75
2022/10/02 11:25:40;;;;;;;13.23;2.30;;;19.80;70.60;;;;;;5083504;28;20028;-76
2022/10/02 11:28:46;;;;;;;11.77;2.33;;;19.80;71.90;;;;;;5060172;28;20032;-75
2022/10/02 11:31:16;;;;;;;16.10;3.50;;;20.00;71.30;;;;;;5082390;28;20016;-76
2022/10/02 11:33:41;;;;;;;;;;;20.10;69.30;;;;;;5081733;28;20471;-74
2022/10/02 11:36:25;;;;;;;10.50;2.13;;;20.30;69.90;;;;;;5069029;28;19908;-74
2022/10/02 11:39:11;;;;;;;11.13;2.13;;;20.30;68.30;;;;;;5080570;28;20028;-74
2022/10/02 11:41:58;;;;;;;8.90;1.65;;;20.30;69.00;;;;;;5084142;28;20622;-74
2022/10/02 11:44:32;;;;;;;13.18;2.33;;;20.40;68.70;;;;;;5081489;28;20059;-74
2022/10/02 11:47:37;;;;;;;12.73;2.40;;;20.40;69.00;;;;;;5066283;28;20042;-74
2022/10/02 11:50:24;;;;;;;7.65;2.03;;;20.50;67.70;;;;;;5049096;28;20033;-74
2022/10/02 11:53:17;;;;;;;8.02;1.85;;;20.60;68.50;;;;;;5071809;28;20066;-74
2022/10/02 11:56:13;;;;;;;12.98;2.30;;;20.50;67.20;;;;;;5067827;28;20514;-74
2022/10/02 11:59:08;;;;;;;9.68;2.00;;;20.40;66.90;;;;;;5083146;28;20020;-74
2022/10/02 12:01:55;;;;;;;9.23;2.10;;;20.30;68.70;;;;;;5070617;28;20459;-74
2022/10/02 12:04:34;;;;;;;11.88;2.53;;;20.30;69.60;;;;;;5078379;28;20020;-74
2022/10/02 12:07:13;;;;;;;6.38;1.60;;;20.10;68.50;;;;;;5088275;28;20092;-74
2022/10/02 12:09:44;;;;;;;17.87;3.33;;;20.00;69.30;;;;;;5078897;28;20359;-73
2022/10/02 12:12:40;;;;;;;11.80;2.75;;;19.90;69.90;;;;;;5064792;28;20038;-73
2022/10/02 12:15:40;;;;;;;8.15;2.20;;;19.80;70.00;;;;;;5081346;28;20032;-74
2022/10/02 12:18:33;;;;;;;12.82;2.85;;;19.70;70.10;;;;;;5085458;28;20095;-74
2022/10/02 12:27:44;;;;;;;12.52;2.45;;;20.10;67.50;;;;;;5069663;28;20074;-74
2022/10/02 12:30:26;;;;;;;10.70;2.00;;;20.30;67.30;;;;;;5047378;28;20048;-74
2022/10/02 12:33:18;;;;;;;7.40;1.90;;;20.40;66.50;;;;;;5052880;28;20111;-73
2022/10/02 12:36:12;;;;;;;9.95;2.85;;;20.60;66.30;;;;;;5081074;28;20024;-73
2022/10/02 12:38:59;;;;;;;13.38;3.25;;;20.80;66.20;;;;;;5045769;28;20036;-74
2022/10/02 12:41:52;;;;;;;11.88;3.50;;;21.00;62.50;;;;;;5070326;28;20033;-73
2022/10/02 12:44:26;;;;;;;6.78;2.15;;;21.40;62.40;;;;;;5078245;28;20024;-74
2022/10/02 12:47:27;;;;;;;8.02;2.15;;;21.60;62.30;;;;;;5085834;28;20027;-74
2022/10/02 12:50:06;;;;;;;11.40;1.75;;;21.60;58.70;;;;;;5057971;28;20060;-73
2022/10/02 12:52:54;;;;;;;12.43;2.22;;;21.70;62.20;;;;;;5089233;28;20020;-73
2022/10/02 12:55:47;;;;;;;10.52;2.47;;;21.80;60.00;;;;;;5057726;28;20410;-74
2022/10/02 12:58:24;;;;;;;11.27;1.80;;;22.00;59.90;;;;;;5071063;28;20046;-73
2022/10/02 13:01:04;;;;;;;9.93;2.38;;;22.10;57.20;;;;;;5086109;28;20059;-74
2022/10/02 13:03:30;;;;;;;11.02;2.60;;;22.10;59.90;;;;;;5069821;28;20073;-73
2022/10/02 13:06:16;;;;;;;12.90;3.13;;;22.10;60.70;;;;;;5077316;28;20024;-73
2022/10/02 13:09:03;;;;;;;11.02;2.83;;;22.30;58.00;;;;;;5088312;28;20069;-74
2022/10/02 13:11:39;;;;;;;10.43;2.22;;;22.30;59.20;;;;;;5078601;28;20044;-74
2022/10/02 13:14:25;;;;;;;13.68;2.58;;;22.30;59.60;;;;;;5073050;28;20031;-73
2022/10/02 13:17:20;;;;;;;9.02;1.85;;;22.40;58.10;;;;;;5059396;28;20035;-77
2022/10/02 13:20:10;;;;;;;7.30;1.88;;;22.60;64.50;;;;;;5083873;28;20052;-74
2022/10/02 13:22:36;;;;;;;7.63;1.73;;;22.70;65.20;;;;;;5084307;28;20032;-74
2022/10/02 13:25:41;;;;;;;12.52;2.95;;;22.90;65.00;;;;;;5080751;28;20016;-74
2022/10/02 13:28:28;;;;;;;8.32;1.88;;;23.00;58.20;;;;;;5066718;28;20827;-75
2022/10/02 13:31:17;;;;;;;8.65;1.40;;;23.00;57.90;;;;;;5084368;28;20523;-75
2022/10/02 13:34:07;;;;;;;9.30;2.10;;;23.00;62.20;;;;;;5069976;28;20024;-74
2022/10/02 13:37:00;;;;;;;10.68;2.08;;;23.10;65.40;;;;;;5080274;28;20035;-73
2022/10/02 13:39:36;;;;;;;16.13;2.30;;;23.10;61.70;;;;;;5059008;28;20626;-74
2022/10/02 13:42:20;;;;;;;11.65;2.58;;;22.90;58.00;;;;;;5058975;28;20478;-74
2022/10/02 13:45:14;;;;;;;8.65;2.53;;;22.60;60.60;;;;;;5070061;28;20028;-74
2022/10/02 13:47:57;;;;;;;13.45;2.30;;;22.30;67.60;;;;;;5077939;28;20752;-75
2022/10/02 13:50:45;;;;;;;9.23;1.85;;;22.10;70.50;;;;;;5068478;28;20032;-78
2022/10/02 13:53:37;;;;;;;8.50;1.95;;;21.90;65.10;;;;;;5077320;28;20052;-76
2022/10/02 13:56:37;;;;;;;13.00;3.38;;;21.80;66.20;;;;;;5081914;28;20020;-75
2022/10/02 13:59:23;;;;;;;9.38;2.33;;;21.90;63.00;;;;;;5067011;28;20024;-75